createdAt,value
2022-11-25T00:02:00.954Z,3.78
2022-11-25T00:04:29.143Z,3.67
2022-11-25T00:06:55.701Z,4.20
2022-11-25T00:09:22.354Z,4.00
2022-11-25T00:11:49.034Z,3.85
2022-11-25T00:14:15.742Z,3.70
2022-11-25T00:19:09.878Z,4.35
2022-11-25T00:21:36.526Z,4.13
2022-11-25T00:26:32.865Z,3.80
2022-11-25T00:29:00.736Z,4.38
2022-11-25T00:31:28.727Z,3.67
2022-11-25T00:33:55.444Z,4.03
2022-11-25T00:36:27.013Z,4.00
2022-11-25T00:38:55.017Z,3.90
2022-11-25T00:41:40.583Z,5.05
2022-11-25T00:44:27.657Z,3.67
2022-11-25T00:46:54.346Z,3.65
2022-11-25T00:49:20.981Z,4.60
2022-11-25T00:51:47.641Z,3.88
2022-11-25T00:54:14.475Z,3.95
2022-11-25T00:56:41.273Z,2.97
2022-11-25T01:01:34.107Z,3.75
2022-11-25T01:04:02.040Z,3.85
2022-11-25T01:06:28.697Z,3.53
2022-11-25T01:08:55.388Z,3.72
2022-11-25T01:11:22.684Z,2.95
2022-11-25T01:13:49.608Z,3.20
2022-11-25T01:16:18.278Z,3.15
2022-11-25T01:18:45.396Z,4.25
2022-11-25T01:23:42.321Z,4.72
2022-11-25T01:26:13.063Z,3.55
2022-11-25T01:28:40.129Z,4.28
2022-11-25T01:31:14.503Z,3.47
2022-11-25T01:36:08.977Z,3.47
2022-11-25T01:38:36.157Z,3.83
2022-11-25T01:41:05.746Z,3.10
2022-11-25T01:43:32.624Z,3.30
2022-11-25T01:46:04.692Z,3.63
2022-11-25T01:51:01.710Z,3.92
2022-11-25T01:53:28.647Z,3.22
2022-11-25T01:56:00.421Z,3.85
2022-11-25T01:58:30.121Z,3.13
2022-11-25T02:00:56.876Z,4.28
2022-11-25T02:06:00.824Z,3.35
2022-11-25T02:08:30.478Z,3.20
2022-11-25T02:10:58.077Z,3.30
2022-11-25T02:13:24.906Z,4.05
2022-11-25T02:15:51.553Z,3.95
2022-11-25T02:18:18.217Z,3.13
2022-11-25T02:20:44.812Z,3.28
2022-11-25T02:25:41.095Z,3.35
2022-11-25T02:30:42.042Z,3.55
2022-11-25T02:33:09.439Z,3.40
2022-11-25T02:35:37.833Z,3.95
2022-11-25T02:38:09.325Z,3.40
2022-11-25T02:40:45.665Z,3.72
2022-11-25T02:43:12.564Z,3.08
2022-11-25T02:45:49.480Z,3.25
2022-11-25T02:48:16.330Z,3.63
2022-11-25T02:50:43.065Z,3.10
2022-11-25T02:53:09.700Z,3.70
2022-11-25T02:55:36.389Z,4.10
2022-11-25T02:58:03.043Z,3.55
2022-11-25T03:00:29.969Z,4.22
2022-11-25T03:02:56.985Z,3.17
2022-11-25T03:05:23.698Z,4.25
2022-11-25T03:07:50.383Z,3.65
2022-11-25T03:10:19.467Z,2.95
2022-11-25T03:12:46.054Z,3.10
2022-11-25T03:15:12.721Z,3.78
2022-11-25T03:17:40.686Z,3.35
2022-11-25T03:20:10.031Z,2.88
2022-11-25T03:22:36.724Z,3.53
2022-11-25T03:25:04.502Z,3.53
2022-11-25T03:27:31.059Z,3.25
2022-11-25T03:32:23.632Z,3.63
2022-11-25T03:34:50.326Z,3.35
2022-11-25T03:37:17.103Z,3.67
2022-11-25T03:39:43.937Z,3.80
2022-11-25T03:42:11.123Z,3.67
2022-11-25T03:44:38.063Z,3.42
2022-11-25T03:47:05.158Z,3.75
2022-11-25T03:49:32.305Z,4.22
2022-11-25T03:51:59.741Z,3.40
2022-11-25T03:54:26.478Z,3.80
2022-11-25T03:57:12.377Z,3.27
2022-11-25T03:59:39.103Z,3.40
2022-11-25T04:02:06.426Z,3.28
2022-11-25T04:04:33.194Z,3.42
2022-11-25T04:07:00.483Z,3.63
2022-11-25T04:09:27.156Z,3.55
2022-11-25T04:14:40.526Z,3.70
2022-11-25T04:17:08.058Z,3.10
2022-11-25T04:22:02.948Z,3.10
2022-11-25T04:24:31.462Z,3.22
2022-11-25T04:36:40.117Z,3.17
2022-11-25T04:39:17.117Z,4.18
2022-11-25T04:41:43.902Z,3.63
2022-11-25T04:44:11.409Z,3.10
2022-11-25T04:46:39.971Z,3.78
2022-11-25T04:51:32.424Z,3.20
2022-11-25T04:54:03.489Z,3.22
2022-11-25T04:59:14.298Z,2.92
2022-11-25T05:01:45.293Z,3.75
2022-11-25T05:04:35.236Z,3.83
2022-11-25T05:11:53.476Z,3.97
2022-11-25T05:16:48.464Z,3.05
2022-11-25T05:19:15.534Z,3.20
2022-11-25T05:21:42.300Z,3.28
2022-11-25T05:24:09.132Z,3.33
2022-11-25T05:26:35.929Z,3.47
2022-11-25T05:33:53.381Z,3.30
2022-11-25T05:36:21.553Z,3.00
2022-11-25T05:38:49.531Z,3.13
2022-11-25T05:41:16.208Z,2.63
2022-11-25T05:43:44.905Z,3.20
2022-11-25T05:46:12.477Z,2.92
2022-11-25T05:51:11.169Z,3.47
2022-11-25T05:53:38.775Z,3.10
2022-11-25T05:56:06.693Z,3.10
2022-11-25T05:59:05.777Z,2.95
2022-11-25T06:01:53.780Z,2.60
2022-11-25T06:04:20.502Z,3.35
2022-11-25T06:06:47.157Z,2.95
2022-11-25T06:09:13.752Z,3.33
2022-11-25T06:11:40.487Z,4.25
2022-11-25T06:14:07.144Z,4.97
2022-11-25T06:21:25.349Z,3.35
2022-11-25T06:23:52.806Z,3.67
2022-11-25T06:26:21.009Z,3.05
2022-11-25T06:28:48.103Z,4.00
2022-11-25T06:31:16.016Z,3.67
2022-11-25T06:33:53.633Z,3.30
2022-11-25T06:38:47.141Z,3.03
2022-11-25T06:41:14.140Z,2.90
2022-11-25T06:46:08.528Z,3.60
2022-11-25T06:48:36.519Z,2.92
2022-11-25T06:56:03.946Z,3.00
2022-11-25T06:58:36.251Z,3.08
2022-11-25T07:01:04.905Z,3.38
2022-11-25T07:03:31.780Z,3.85
2022-11-25T07:05:59.047Z,3.95
2022-11-25T07:10:52.575Z,3.25
2022-11-25T07:13:19.825Z,3.17
2022-11-25T07:15:46.600Z,3.50
2022-11-25T07:18:13.269Z,3.58
2022-11-25T07:20:40.062Z,3.58
2022-11-25T07:23:06.663Z,6.43
2022-11-25T07:25:33.324Z,3.33
2022-11-25T07:28:00.004Z,3.40
2022-11-25T07:32:52.189Z,3.35
2022-11-25T07:35:18.860Z,4.30
2022-11-25T07:40:11.274Z,2.85
2022-11-25T07:42:37.903Z,3.42
2022-11-25T07:53:04.035Z,3.53
2022-11-25T07:55:30.711Z,3.60
2022-11-25T07:57:57.513Z,3.72
2022-11-25T08:00:24.316Z,5.80
2022-11-25T08:02:51.071Z,3.33
2022-11-25T08:05:17.813Z,4.53
2022-11-25T08:07:44.665Z,4.00
2022-11-25T08:10:11.373Z,4.00
2022-11-25T08:12:38.078Z,3.45
2022-11-25T08:15:04.974Z,3.90
2022-11-25T08:17:31.772Z,3.38
2022-11-25T08:19:58.943Z,3.80
2022-11-25T08:22:25.643Z,3.05
2022-11-25T08:24:52.383Z,3.30
2022-11-25T08:27:19.113Z,3.45
2022-11-25T08:29:45.821Z,3.50
2022-11-25T08:32:12.542Z,3.75
2022-11-25T08:34:39.153Z,3.53
2022-11-25T08:42:19.364Z,3.25
2022-11-25T08:44:45.948Z,3.65
2022-11-25T08:47:12.540Z,3.88
2022-11-25T08:49:41.571Z,3.55
2022-11-25T08:52:08.676Z,2.75
2022-11-25T08:54:35.339Z,2.95
2022-11-25T08:57:01.985Z,3.20
2022-11-25T08:59:28.598Z,3.30
2022-11-25T09:01:55.695Z,2.92
2022-11-25T09:06:47.837Z,3.72
2022-11-25T09:09:14.475Z,4.30
2022-11-25T09:11:42.458Z,6.20
2022-11-25T09:14:09.264Z,6.10
2022-11-25T09:16:36.209Z,5.75
2022-11-25T09:19:03.017Z,4.20
2022-11-25T09:21:29.670Z,3.20
2022-11-25T09:23:56.638Z,3.58
2022-11-25T09:26:27.547Z,3.10
2022-11-25T09:28:54.729Z,3.50
2022-11-25T09:31:22.019Z,2.97
2022-11-25T09:33:48.889Z,3.80
2022-11-25T09:36:16.264Z,2.80
2022-11-25T09:38:45.914Z,3.75
2022-11-25T09:41:15.297Z,3.60
2022-11-25T09:44:15.209Z,3.63
2022-11-25T09:47:02.068Z,3.40
2022-11-25T09:49:40.942Z,4.53
2022-11-25T09:54:53.759Z,3.50
2022-11-25T09:57:39.293Z,3.65
2022-11-25T10:00:06.054Z,3.17
2022-11-25T10:02:45.597Z,4.60
2022-11-25T10:05:16.142Z,3.55
2022-11-25T10:07:51.442Z,3.70
2022-11-25T10:10:26.240Z,5.43
2022-11-25T10:12:54.722Z,7.85
2022-11-25T10:15:25.306Z,6.20
2022-11-25T10:17:54.196Z,4.28
2022-11-25T10:27:50.614Z,4.32
2022-11-25T10:30:25.839Z,3.45
2022-11-25T10:32:59.248Z,3.88
2022-11-25T10:42:47.478Z,3.80
2022-11-25T10:45:14.416Z,3.55
2022-11-25T10:47:57.043Z,3.72
2022-11-25T10:50:34.005Z,3.53
2022-11-25T10:53:03.799Z,4.55
2022-11-25T10:55:33.762Z,3.83
2022-11-25T11:06:36.412Z,4.50
2022-11-25T11:09:03.633Z,4.20
2022-11-25T11:19:23.807Z,3.58
2022-11-25T11:21:51.237Z,5.00
2022-11-25T11:25:01.355Z,4.07
2022-11-25T11:35:07.891Z,4.88
2022-11-25T11:37:46.775Z,4.35
2022-11-25T11:40:19.598Z,3.30
2022-11-25T11:45:51.702Z,4.10
2022-11-25T11:48:18.338Z,3.60
2022-11-25T11:50:49.335Z,4.28
2022-11-25T11:58:41.409Z,4.45
2022-11-25T12:01:27.153Z,4.30
2022-11-25T12:04:15.096Z,3.60
2022-11-25T12:06:42.964Z,3.08
2022-11-25T12:09:19.932Z,3.63
2022-11-25T12:11:50.150Z,2.53
2022-11-25T12:14:26.245Z,3.15
2022-11-25T12:16:55.964Z,3.35
2022-11-25T12:19:28.945Z,3.38
2022-11-25T12:22:08.730Z,3.30
2022-11-25T12:24:50.030Z,3.30
2022-11-25T12:27:38.964Z,3.72
2022-11-25T12:30:25.863Z,3.45
2022-11-25T12:33:08.073Z,4.85
2022-11-25T12:38:17.085Z,4.38
2022-11-25T12:43:24.462Z,4.88
2022-11-25T12:45:55.444Z,4.45
2022-11-25T12:50:47.662Z,4.95
2022-11-25T12:53:34.616Z,4.63
2022-11-25T12:56:22.728Z,4.60
2022-11-25T13:26:28.655Z,3.83
2022-11-25T13:29:19.425Z,4.30
2022-11-25T13:31:59.296Z,4.55
2022-11-25T13:34:29.432Z,4.05
2022-11-25T13:39:33.452Z,4.28
2022-11-25T13:44:53.408Z,4.30
2022-11-25T13:47:28.512Z,3.50
2022-11-25T13:49:57.624Z,4.93
2022-11-25T14:03:31.735Z,3.25
2022-11-25T14:06:10.731Z,3.50
2022-11-25T14:35:40.331Z,3.38
2022-11-25T14:38:17.699Z,3.58
2022-11-25T14:40:49.057Z,3.35
2022-11-25T14:43:24.094Z,3.72
2022-11-25T14:46:11.032Z,3.70
2022-11-25T14:48:38.539Z,3.88
2022-11-25T14:51:10.090Z,3.67
2022-11-25T14:56:09.813Z,4.75
2022-11-25T14:58:40.674Z,5.03
2022-11-25T15:01:08.721Z,4.57
2022-11-25T15:03:35.535Z,4.88
2022-11-25T15:08:39.018Z,2.85
2022-11-25T15:11:10.618Z,3.30
2022-11-25T15:13:41.746Z,3.90
2022-11-25T15:16:12.401Z,3.20
2022-11-25T15:18:43.371Z,4.13
2022-11-25T15:21:13.949Z,4.38
2022-11-25T15:23:40.737Z,5.32
2022-11-25T15:26:18.933Z,5.75
2022-11-25T15:28:46.585Z,7.07
2022-11-25T15:36:12.239Z,6.35
2022-11-25T15:46:09.082Z,5.18
2022-11-25T15:48:40.422Z,5.40
2022-11-25T15:53:43.097Z,4.97
2022-11-25T15:56:11.326Z,4.97
2022-11-25T15:58:42.135Z,4.35
2022-11-25T16:01:18.341Z,4.78
2022-11-25T16:11:20.694Z,4.90
2022-11-25T16:13:52.107Z,5.28
2022-11-25T16:16:31.055Z,6.85
2022-11-25T16:19:04.950Z,9.07
2022-11-25T16:34:17.835Z,6.03
2022-11-25T16:36:44.894Z,5.45
2022-11-25T16:39:11.722Z,5.75
2022-11-25T16:44:18.171Z,6.00
2022-11-25T16:54:05.046Z,6.72
2022-11-25T17:01:25.836Z,8.60
2022-11-25T17:13:54.958Z,11.95
2022-11-25T17:16:26.148Z,11.82
2022-11-25T17:18:53.856Z,12.65
2022-11-25T17:21:21.086Z,13.93
2022-11-25T17:23:52.451Z,13.85
2022-11-25T17:33:53.067Z,10.85
2022-11-25T17:36:20.059Z,10.63
2022-11-25T17:38:47.017Z,9.68
2022-11-25T17:43:44.425Z,11.35
2022-11-25T17:46:11.611Z,11.10
2022-11-25T17:51:12.707Z,13.45
2022-11-25T17:53:40.252Z,14.93
2022-11-25T17:58:43.590Z,13.77
2022-11-25T18:01:10.438Z,14.05
2022-11-25T18:03:37.251Z,13.30
2022-11-25T18:06:04.686Z,12.10
2022-11-25T18:08:31.389Z,11.18
2022-11-25T18:10:58.714Z,12.43
2022-11-25T18:13:25.412Z,11.15
2022-11-25T18:15:52.068Z,10.02
2022-11-25T18:20:48.847Z,9.82
2022-11-25T18:23:15.747Z,9.73
2022-11-25T18:25:42.547Z,11.43
2022-11-25T18:28:14.322Z,13.02
2022-11-25T18:30:41.023Z,14.10
2022-11-25T18:35:43.763Z,15.45
2022-11-25T18:38:10.719Z,15.38
2022-11-25T18:43:06.456Z,13.00
2022-11-25T18:45:37.386Z,13.05
2022-11-25T18:53:09.365Z,13.27
2022-11-25T18:55:36.125Z,13.75
2022-11-25T18:58:02.878Z,14.15
2022-11-25T19:00:32.615Z,11.93
2022-11-25T19:02:59.990Z,12.23
2022-11-25T19:05:29.629Z,10.15
2022-11-25T19:07:57.013Z,11.13
2022-11-25T19:10:25.222Z,10.18
2022-11-25T19:13:03.358Z,10.10
2022-11-25T19:15:29.994Z,9.60
2022-11-25T19:18:06.544Z,12.02
2022-11-25T19:25:25.154Z,20.42
2022-11-25T19:27:57.300Z,17.27
2022-11-25T19:30:25.749Z,13.98
2022-11-25T19:32:53.706Z,16.58
2022-11-25T19:37:50.131Z,15.95
2022-11-25T19:40:18.179Z,15.50
2022-11-25T19:42:48.567Z,12.40
2022-11-25T19:45:20.213Z,13.70
2022-11-25T19:47:48.451Z,15.60
2022-11-25T19:55:14.874Z,20.50
2022-11-25T20:07:26.319Z,34.10
2022-11-25T20:09:53.379Z,27.10
2022-11-25T20:12:22.655Z,22.42
2022-11-25T20:14:50.081Z,19.23
2022-11-25T20:17:21.811Z,17.42
2022-11-25T20:19:48.855Z,14.95
2022-11-25T20:22:20.823Z,13.80
2022-11-25T20:24:47.500Z,12.32
2022-11-25T20:29:40.402Z,10.20
2022-11-25T20:32:19.344Z,11.32
2022-11-25T20:34:47.758Z,13.90
2022-11-25T20:37:16.117Z,14.05
2022-11-25T20:49:29.321Z,16.85
2022-11-25T20:51:56.895Z,16.27
2022-11-25T20:54:26.175Z,17.67
2022-11-25T20:56:53.087Z,21.85
2022-11-25T20:59:21.779Z,36.70
2022-11-25T21:04:14.711Z,21.85
2022-11-25T21:06:41.510Z,15.95
2022-11-25T21:11:40.352Z,15.00
2022-11-25T21:14:12.979Z,15.02
2022-11-25T21:19:06.668Z,12.30
2022-11-25T21:21:35.066Z,16.48
2022-11-25T21:24:04.905Z,19.48
2022-11-25T21:26:31.768Z,21.70
2022-11-25T21:29:00.940Z,20.13
2022-11-25T21:31:27.617Z,18.83
2022-11-25T21:33:57.952Z,17.80
2022-11-25T21:36:27.943Z,16.20
2022-11-25T21:44:16.992Z,31.30
2022-11-25T21:46:43.903Z,30.70
2022-11-25T21:49:11.030Z,23.98
2022-11-25T21:51:37.663Z,20.27
2022-11-25T21:56:37.638Z,31.15
2022-11-25T22:08:47.165Z,21.02
2022-11-25T22:11:15.513Z,19.20
2022-11-25T22:13:42.981Z,15.05
2022-11-25T22:16:12.920Z,14.32
2022-11-25T22:18:40.064Z,13.90
2022-11-25T22:21:06.697Z,13.63
2022-11-25T22:23:33.966Z,14.73
2022-11-25T22:26:00.674Z,16.75
2022-11-25T22:35:48.059Z,14.45
2022-11-25T22:38:15.696Z,13.60
2022-11-25T22:40:47.840Z,12.82
2022-11-25T22:43:22.400Z,11.52
2022-11-25T22:48:20.947Z,12.55
2022-11-25T22:50:47.646Z,12.25
2022-11-25T22:53:18.010Z,13.57
2022-11-25T22:55:45.559Z,13.57
2022-11-25T22:58:13.714Z,12.50
2022-11-25T23:00:42.840Z,13.35
2022-11-25T23:03:19.792Z,11.45
2022-11-25T23:13:05.994Z,8.60
2022-11-25T23:15:32.785Z,8.15
2022-11-25T23:18:00.771Z,8.52
2022-11-25T23:20:34.021Z,11.43
2022-11-25T23:23:21.480Z,11.20
2022-11-25T23:28:14.439Z,10.50
2022-11-25T23:30:43.918Z,9.90
2022-11-25T23:33:15.725Z,8.32
2022-11-25T23:35:42.450Z,8.48
2022-11-25T23:38:15.351Z,11.85
2022-11-25T23:40:42.037Z,10.93
2022-11-25T23:43:12.549Z,9.95
2022-11-25T23:48:09.878Z,10.57
2022-11-25T23:50:36.538Z,10.38
2022-11-25T23:53:05.531Z,10.98
2022-11-25T23:55:34.320Z,11.10
2022-11-25T23:58:01.817Z,11.18
